sensor_id;sensor_type;location;lat;lon;timestamp;pressure;altitude;pressure_sealevel;temperature;humidity
12785;BME280;6456;42.680;23.260;2023-04-01T00:01:56;93686.56;;;12.33;66.62
12785;BME280;6456;42.680;23.260;2023-04-01T00:04:23;93688.78;;;12.41;68.29
12785;BME280;6456;42.680;23.260;2023-04-01T00:06:50;93690.38;;;12.42;69.45
12785;BME280;6456;42.680;23.260;2023-04-01T00:09:17;93776.56;;;13.02;70.05
12785;BME280;6456;42.680;23.260;2023-04-01T00:11:44;93578.56;;;11.78;70.43
12785;BME280;6456;42.680;23.260;2023-04-01T00:14:11;93746.81;;;12.84;70.77
12785;BME280;6456;42.680;23.260;2023-04-01T00:16:38;93714.31;;;12.57;70.48
12785;BME280;6456;42.680;23.260;2023-04-01T00:19:06;93747.72;;;12.73;70.28
12785;BME280;6456;42.680;23.260;2023-04-01T00:21:33;93781.31;;;13.00;70.33
12785;BME280;6456;42.680;23.260;2023-04-01T00:24:00;93670.06;;;12.21;70.52
12785;BME280;6456;42.680;23.260;2023-04-01T00:26:27;93777.50;;;12.91;70.99
12785;BME280;6456;42.680;23.260;2023-04-01T00:28:54;93704.16;;;12.28;70.60
12785;BME280;6456;42.680;23.260;2023-04-01T00:31:21;93749.66;;;12.56;70.38
12785;BME280;6456;42.680;23.260;2023-04-01T00:33:48;93703.88;;;12.24;70.96
12785;BME280;6456;42.680;23.260;2023-04-01T00:36:19;93606.16;;;11.54;71.28
12785;BME280;6456;42.680;23.260;2023-04-01T00:38:46;93757.44;;;12.46;72.60
12785;BME280;6456;42.680;23.260;2023-04-01T00:41:14;93762.16;;;12.44;73.00
12785;BME280;6456;42.680;23.260;2023-04-01T00:43:43;93719.41;;;12.04;74.02
12785;BME280;6456;42.680;23.260;2023-04-01T00:46:09;93667.03;;;11.57;75.36
12785;BME280;6456;42.680;23.260;2023-04-01T00:48:39;93681.75;;;11.53;75.30
12785;BME280;6456;42.680;23.260;2023-04-01T00:51:09;93670.09;;;11.49;76.58
12785;BME280;6456;42.680;23.260;2023-04-01T00:53:43;93649.59;;;11.35;77.11
12785;BME280;6456;42.680;23.260;2023-04-01T00:56:14;93623.34;;;11.23;77.49
12785;BME280;6456;42.680;23.260;2023-04-01T00:58:44;93733.63;;;12.03;77.91
12785;BME280;6456;42.680;23.260;2023-04-01T01:01:12;93685.28;;;11.76;77.72
12785;BME280;6456;42.680;23.260;2023-04-01T01:03:39;93731.44;;;11.95;78.16
12785;BME280;6456;42.680;23.260;2023-04-01T01:06:13;93721.91;;;11.94;78.92
12785;BME280;6456;42.680;23.260;2023-04-01T01:09:03;93701.16;;;11.81;79.59
12785;BME280;6456;42.680;23.260;2023-04-01T01:11:37;93650.06;;;11.48;79.62
12785;BME280;6456;42.680;23.260;2023-04-01T01:14:17;93646.25;;;11.39;80.32
12785;BME280;6456;42.680;23.260;2023-04-01T01:16:50;93707.63;;;11.90;79.92
12785;BME280;6456;42.680;23.260;2023-04-01T01:19:36;93571.34;;;10.97;80.44
12785;BME280;6456;42.680;23.260;2023-04-01T01:25:25;93604.38;;;11.21;80.73
12785;BME280;6456;42.680;23.260;2023-04-01T01:27:57;93650.63;;;11.50;79.57
12785;BME280;6456;42.680;23.260;2023-04-01T01:30:43;93675.09;;;11.68;80.71
12785;BME280;6456;42.680;23.260;2023-04-01T01:33:27;93661.16;;;11.50;80.54
12785;BME280;6456;42.680;23.260;2023-04-01T01:36:02;93688.88;;;11.70;80.08
12785;BME280;6456;42.680;23.260;2023-04-01T01:38:33;93687.59;;;11.72;79.54
12785;BME280;6456;42.680;23.260;2023-04-01T01:41:01;93688.97;;;11.75;78.51
12785;BME280;6456;42.680;23.260;2023-04-01T01:43:32;93654.53;;;11.48;78.14
12785;BME280;6456;42.680;23.260;2023-04-01T01:46:02;93684.47;;;11.75;78.02
12785;BME280;6456;42.680;23.260;2023-04-01T01:48:34;93702.22;;;11.80;77.72
12785;BME280;6456;42.680;23.260;2023-04-01T01:51:03;93680.63;;;11.83;77.46
12785;BME280;6456;42.680;23.260;2023-04-01T01:53:31;93649.19;;;11.59;77.11
12785;BME280;6456;42.680;23.260;2023-04-01T01:55:58;93616.06;;;11.47;76.63
12785;BME280;6456;42.680;23.260;2023-04-01T01:58:28;93613.72;;;11.50;76.37
12785;BME280;6456;42.680;23.260;2023-04-01T02:00:59;93662.81;;;11.90;75.75
12785;BME280;6456;42.680;23.260;2023-04-01T02:03:29;93604.13;;;11.39;74.54
12785;BME280;6456;42.680;23.260;2023-04-01T02:05:59;93535.94;;;11.05;73.63
12785;BME280;6456;42.680;23.260;2023-04-01T02:08:32;93656.97;;;11.88;74.99
12785;BME280;6456;42.680;23.260;2023-04-01T02:11:03;93611.91;;;11.51;75.94
12785;BME280;6456;42.680;23.260;2023-04-01T02:13:36;93659.31;;;11.84;74.81
12785;BME280;6456;42.680;23.260;2023-04-01T02:16:08;93659.38;;;11.89;74.66
12785;BME280;6456;42.680;23.260;2023-04-01T02:18:38;93568.19;;;11.33;74.30
12785;BME280;6456;42.680;23.260;2023-04-01T02:21:07;93649.78;;;11.83;74.49
12785;BME280;6456;42.680;23.260;2023-04-01T02:23:38;93634.78;;;11.84;74.34
12785;BME280;6456;42.680;23.260;2023-04-01T02:26:06;93587.38;;;11.50;74.14
12785;BME280;6456;42.680;23.260;2023-04-01T02:28:34;93629.94;;;11.76;74.17
12785;BME280;6456;42.680;23.260;2023-04-01T02:31:03;93499.72;;;10.95;73.92
12785;BME280;6456;42.680;23.260;2023-04-01T02:33:31;93609.16;;;11.63;73.82
12785;BME280;6456;42.680;23.260;2023-04-01T02:35:58;93643.09;;;11.92;73.65
12785;BME280;6456;42.680;23.260;2023-04-01T02:38:26;93668.59;;;12.08;73.50
12785;BME280;6456;42.680;23.260;2023-04-01T02:41:00;93626.50;;;11.75;72.80
12785;BME280;6456;42.680;23.260;2023-04-01T02:43:27;93515.50;;;11.12;71.44
12785;BME280;6456;42.680;23.260;2023-04-01T02:45:54;93664.47;;;11.96;66.93
12785;BME280;6456;42.680;23.260;2023-04-01T02:48:21;93666.19;;;12.07;66.86
12785;BME280;6456;42.680;23.260;2023-04-01T02:50:48;93676.56;;;12.13;70.87
12785;BME280;6456;42.680;23.260;2023-04-01T02:53:15;93636.06;;;11.81;73.14
12785;BME280;6456;42.680;23.260;2023-04-01T02:55:42;93625.03;;;11.68;72.68
12785;BME280;6456;42.680;23.260;2023-04-01T02:58:11;93693.13;;;12.09;71.47
12785;BME280;6456;42.680;23.260;2023-04-01T03:00:38;93656.34;;;11.81;70.66
12785;BME280;6456;42.680;23.260;2023-04-01T03:03:05;93671.41;;;12.02;69.77
12785;BME280;6456;42.680;23.260;2023-04-01T03:05:32;93698.19;;;12.15;68.98
12785;BME280;6456;42.680;23.260;2023-04-01T03:07:59;93565.09;;;11.36;69.61
12785;BME280;6456;42.680;23.260;2023-04-01T03:10:26;93611.78;;;11.63;70.54
12785;BME280;6456;42.680;23.260;2023-04-01T03:12:53;93638.91;;;11.75;71.37
12785;BME280;6456;42.680;23.260;2023-04-01T03:15:21;93666.22;;;11.90;69.12
12785;BME280;6456;42.680;23.260;2023-04-01T03:17:48;93690.97;;;12.06;69.71
12785;BME280;6456;42.680;23.260;2023-04-01T03:20:16;93687.78;;;12.04;71.08
12785;BME280;6456;42.680;23.260;2023-04-01T03:22:43;93701.56;;;12.11;71.11
12785;BME280;6456;42.680;23.260;2023-04-01T03:25:11;93708.53;;;12.17;64.84
12785;BME280;6456;42.680;23.260;2023-04-01T03:27:38;93606.78;;;11.61;67.56
12785;BME280;6456;42.680;23.260;2023-04-01T03:30:06;93655.59;;;12.02;66.92
12785;BME280;6456;42.680;23.260;2023-04-01T03:32:35;93666.34;;;12.17;66.02
12785;BME280;6456;42.680;23.260;2023-04-01T03:35:02;93698.16;;;12.54;65.11
12785;BME280;6456;42.680;23.260;2023-04-01T03:37:30;93680.06;;;12.62;66.07
12785;BME280;6456;42.680;23.260;2023-04-01T03:39:57;93588.81;;;12.18;65.67
12785;BME280;6456;42.680;23.260;2023-04-01T03:42:24;93588.41;;;12.31;65.68
12785;BME280;6456;42.680;23.260;2023-04-01T03:44:51;93614.41;;;12.71;66.02
12785;BME280;6456;42.680;23.260;2023-04-01T03:47:18;93586.84;;;12.57;66.15
12785;BME280;6456;42.680;23.260;2023-04-01T03:49:46;93611.69;;;12.88;66.76
12785;BME280;6456;42.680;23.260;2023-04-01T03:52:13;93518.25;;;12.30;66.35
12785;BME280;6456;42.680;23.260;2023-04-01T03:54:40;93577.09;;;12.89;69.14
12785;BME280;6456;42.680;23.260;2023-04-01T03:57:07;93581.13;;;12.97;70.96
12785;BME280;6456;42.680;23.260;2023-04-01T03:59:34;93579.41;;;13.07;72.63
12785;BME280;6456;42.680;23.260;2023-04-01T04:02:01;93505.63;;;12.32;73.18
12785;BME280;6456;42.680;23.260;2023-04-01T04:04:28;93511.63;;;12.28;75.01
12785;BME280;6456;42.680;23.260;2023-04-01T04:06:56;93512.97;;;12.30;76.01
12785;BME280;6456;42.680;23.260;2023-04-01T04:09:23;93550.63;;;12.47;76.58
12785;BME280;6456;42.680;23.260;2023-04-01T04:11:50;93577.09;;;12.57;77.40
12785;BME280;6456;42.680;23.260;2023-04-01T04:14:17;93388.16;;;11.18;78.17
12785;BME280;6456;42.680;23.260;2023-04-01T04:16:44;93383.91;;;10.95;79.34
12785;BME280;6456;42.680;23.260;2023-04-01T04:19:11;93484.13;;;11.48;79.78
12785;BME280;6456;42.680;23.260;2023-04-01T04:21:39;93470.63;;;11.45;80.02
12785;BME280;6456;42.680;23.260;2023-04-01T04:24:07;93471.69;;;11.44;78.69
12785;BME280;6456;42.680;23.260;2023-04-01T04:26:34;93548.91;;;11.88;78.58
12785;BME280;6456;42.680;23.260;2023-04-01T04:29:02;93493.28;;;11.68;79.36
12785;BME280;6456;42.680;23.260;2023-04-01T04:31:29;93528.88;;;11.87;79.81
12785;BME280;6456;42.680;23.260;2023-04-01T04:33:56;93528.13;;;11.91;78.70
12785;BME280;6456;42.680;23.260;2023-04-01T04:36:23;93460.28;;;11.38;78.18
12785;BME280;6456;42.680;23.260;2023-04-01T04:38:50;93526.41;;;11.80;79.38
12785;BME280;6456;42.680;23.260;2023-04-01T04:41:19;93503.72;;;11.57;79.55
12785;BME280;6456;42.680;23.260;2023-04-01T04:43:51;93453.41;;;11.16;79.49
12785;BME280;6456;42.680;23.260;2023-04-01T04:46:19;93545.97;;;11.84;79.75
12785;BME280;6456;42.680;23.260;2023-04-01T04:48:46;93428.03;;;11.26;78.21
12785;BME280;6456;42.680;23.260;2023-04-01T04:51:14;93439.97;;;11.12;79.37
12785;BME280;6456;42.680;23.260;2023-04-01T04:53:42;93434.69;;;11.12;80.93
12785;BME280;6456;42.680;23.260;2023-04-01T04:56:09;93457.09;;;11.36;81.21
12785;BME280;6456;42.680;23.260;2023-04-01T04:58:38;93527.28;;;11.86;79.93
12785;BME280;6456;42.680;23.260;2023-04-01T05:01:06;93437.56;;;11.32;79.70
12785;BME280;6456;42.680;23.260;2023-04-01T05:03:33;93459.78;;;11.63;80.09
12785;BME280;6456;42.680;23.260;2023-04-01T05:06:00;93508.88;;;11.91;79.24
12785;BME280;6456;42.680;23.260;2023-04-01T05:08:27;93499.03;;;11.81;79.66
12785;BME280;6456;42.680;23.260;2023-04-01T05:10:54;93456.97;;;11.48;79.16
12785;BME280;6456;42.680;23.260;2023-04-01T05:13:21;93359.00;;;10.81;78.72
12785;BME280;6456;42.680;23.260;2023-04-01T05:15:50;93422.16;;;11.19;79.55
12785;BME280;6456;42.680;23.260;2023-04-01T05:18:17;93435.56;;;11.39;80.58
12785;BME280;6456;42.680;23.260;2023-04-01T05:20:48;93416.44;;;11.27;80.10
12785;BME280;6456;42.680;23.260;2023-04-01T05:23:15;93350.28;;;10.97;79.93
12785;BME280;6456;42.680;23.260;2023-04-01T05:25:42;93490.75;;;11.73;80.08
12785;BME280;6456;42.680;23.260;2023-04-01T05:28:10;93454.22;;;11.59;79.94
12785;BME280;6456;42.680;23.260;2023-04-01T05:30:39;93467.28;;;11.49;79.21
12785;BME280;6456;42.680;23.260;2023-04-01T05:33:08;93427.91;;;11.16;79.63
12785;BME280;6456;42.680;23.260;2023-04-01T05:35:35;93485.25;;;11.74;78.76
12785;BME280;6456;42.680;23.260;2023-04-01T05:38:02;93480.22;;;11.73;79.28
12785;BME280;6456;42.680;23.260;2023-04-01T05:40:29;93476.38;;;11.85;80.30
12785;BME280;6456;42.680;23.260;2023-04-01T05:42:56;93457.59;;;11.77;80.23
12785;BME280;6456;42.680;23.260;2023-04-01T05:45:23;93483.63;;;11.95;79.34
12785;BME280;6456;42.680;23.260;2023-04-01T05:47:50;93486.06;;;12.01;78.36
12785;BME280;6456;42.680;23.260;2023-04-01T05:50:19;93359.34;;;11.33;78.40
12785;BME280;6456;42.680;23.260;2023-04-01T05:52:46;93474.41;;;12.24;76.69
12785;BME280;6456;42.680;23.260;2023-04-01T05:55:13;93465.56;;;12.40;74.66
12785;BME280;6456;42.680;23.260;2023-04-01T05:57:40;93457.22;;;12.48;72.05
12785;BME280;6456;42.680;23.260;2023-04-01T06:00:07;93370.25;;;11.90;71.46
12785;BME280;6456;42.680;23.260;2023-04-01T06:02:34;93471.63;;;12.67;70.38
12785;BME280;6456;42.680;23.260;2023-04-01T06:05:12;93469.66;;;12.90;70.46
12785;BME280;6456;42.680;23.260;2023-04-01T06:07:41;93429.25;;;12.84;68.37
12785;BME280;6456;42.680;23.260;2023-04-01T06:10:16;93461.91;;;13.10;67.49
12785;BME280;6456;42.680;23.260;2023-04-01T06:12:56;93472.88;;;13.38;66.85
12785;BME280;6456;42.680;23.260;2023-04-01T06:15:32;93280.44;;;12.48;65.53
12785;BME280;6456;42.680;23.260;2023-04-01T06:18:41;93471.09;;;13.54;63.63
12785;BME280;6456;42.680;23.260;2023-04-01T06:21:25;93474.88;;;13.78;63.89
12785;BME280;6456;42.680;23.260;2023-04-01T06:24:07;93443.66;;;13.60;62.10
12785;BME280;6456;42.680;23.260;2023-04-01T06:26:44;93356.00;;;13.11;61.83
12785;BME280;6456;42.680;23.260;2023-04-01T06:29:31;93338.34;;;13.17;61.44
12785;BME280;6456;42.680;23.260;2023-04-01T06:32:36;93358.75;;;13.36;60.25
12785;BME280;6456;42.680;23.260;2023-04-01T06:35:35;93454.28;;;13.80;59.42
12785;BME280;6456;42.680;23.260;2023-04-01T06:38:28;93427.03;;;13.70;59.79
12785;BME280;6456;42.680;23.260;2023-04-01T06:41:09;93436.56;;;13.86;59.85
12785;BME280;6456;42.680;23.260;2023-04-01T06:43:54;93307.69;;;13.11;60.50
12785;BME280;6456;42.680;23.260;2023-04-01T06:46:32;93357.94;;;13.36;59.19
12785;BME280;6456;42.680;23.260;2023-04-01T06:49:22;93325.94;;;13.22;58.57
12785;BME280;6456;42.680;23.260;2023-04-01T06:51:59;93309.28;;;13.17;58.67
12785;BME280;6456;42.680;23.260;2023-04-01T06:54:32;93425.50;;;13.99;58.84
12785;BME280;6456;42.680;23.260;2023-04-01T06:57:05;93410.97;;;13.96;58.08
12785;BME280;6456;42.680;23.260;2023-04-01T06:59:39;93376.56;;;13.91;58.20
12785;BME280;6456;42.680;23.260;2023-04-01T07:02:16;93376.28;;;13.88;57.95
12785;BME280;6456;42.680;23.260;2023-04-01T07:04:48;93405.09;;;13.69;58.61
12785;BME280;6456;42.680;23.260;2023-04-01T07:07:21;93396.63;;;13.72;59.29
12785;BME280;6456;42.680;23.260;2023-04-01T07:09:53;93341.59;;;13.44;59.46
12785;BME280;6456;42.680;23.260;2023-04-01T07:12:36;93404.06;;;13.95;59.31
12785;BME280;6456;42.680;23.260;2023-04-01T07:15:17;93370.22;;;13.87;59.95
12785;BME280;6456;42.680;23.260;2023-04-01T07:17:47;93333.19;;;13.62;60.43
12785;BME280;6456;42.680;23.260;2023-04-01T07:20:20;93428.41;;;13.92;61.12
12785;BME280;6456;42.680;23.260;2023-04-01T07:22:53;93421.03;;;14.09;61.21
12785;BME280;6456;42.680;23.260;2023-04-01T07:25:24;93377.09;;;13.88;61.52
12785;BME280;6456;42.680;23.260;2023-04-01T07:27:59;93393.78;;;14.09;60.74
12785;BME280;6456;42.680;23.260;2023-04-01T07:30:30;93299.38;;;13.89;60.63
12785;BME280;6456;42.680;23.260;2023-04-01T07:33:01;93432.72;;;14.54;60.33
12785;BME280;6456;42.680;23.260;2023-04-01T07:35:35;93459.19;;;14.69;60.07
12785;BME280;6456;42.680;23.260;2023-04-01T07:38:14;93279.53;;;13.72;59.61
12785;BME280;6456;42.680;23.260;2023-04-01T07:40:48;93357.00;;;13.87;61.13
12785;BME280;6456;42.680;23.260;2023-04-01T07:43:50;93430.34;;;14.32;61.66
12785;BME280;6456;42.680;23.260;2023-04-01T07:46:31;93397.28;;;14.35;61.61
12785;BME280;6456;42.680;23.260;2023-04-01T07:49:08;93278.72;;;13.56;61.90
12785;BME280;6456;42.680;23.260;2023-04-01T07:51:42;93316.03;;;13.90;61.66
12785;BME280;6456;42.680;23.260;2023-04-01T07:54:18;93284.81;;;13.77;61.15
12785;BME280;6456;42.680;23.260;2023-04-01T07:56:53;93346.47;;;14.38;59.99
12785;BME280;6456;42.680;23.260;2023-04-01T07:59:27;93379.25;;;14.62;59.72
12785;BME280;6456;42.680;23.260;2023-04-01T08:02:05;93293.53;;;14.23;60.67
12785;BME280;6456;42.680;23.260;2023-04-01T08:04:46;93342.72;;;14.59;60.31
12785;BME280;6456;42.680;23.260;2023-04-01T08:07:20;93281.66;;;14.15;60.98
12785;BME280;6456;42.680;23.260;2023-04-01T08:09:55;93352.25;;;14.70;59.67
12785;BME280;6456;42.680;23.260;2023-04-01T08:12:32;93322.06;;;14.61;59.44
12785;BME280;6456;42.680;23.260;2023-04-01T08:15:12;93368.28;;;15.09;59.89
12785;BME280;6456;42.680;23.260;2023-04-01T08:17:55;93327.78;;;14.98;59.62
12785;BME280;6456;42.680;23.260;2023-04-01T08:20:34;93346.00;;;15.25;58.03
12785;BME280;6456;42.680;23.260;2023-04-01T08:23:07;93198.03;;;14.29;58.14
12785;BME280;6456;42.680;23.260;2023-04-01T08:25:40;93296.56;;;14.95;59.99
12785;BME280;6456;42.680;23.260;2023-04-01T08:28:13;93360.25;;;15.34;59.05
12785;BME280;6456;42.680;23.260;2023-04-01T08:30:48;93283.81;;;15.07;59.40
12785;BME280;6456;42.680;23.260;2023-04-01T08:33:22;93216.84;;;14.92;63.69
12785;BME280;6456;42.680;23.260;2023-04-01T08:35:55;93311.16;;;15.52;59.04
12785;BME280;6456;42.680;23.260;2023-04-01T08:38:28;93324.50;;;15.80;58.37
12785;BME280;6456;42.680;23.260;2023-04-01T08:40:59;93259.50;;;15.39;61.92
12785;BME280;6456;42.680;23.260;2023-04-01T08:43:41;93248.16;;;15.28;59.07
12785;BME280;6456;42.680;23.260;2023-04-01T08:49:13;93188.47;;;15.02;59.40
12785;BME280;6456;42.680;23.260;2023-04-01T08:52:10;93249.69;;;15.45;58.56
12785;BME280;6456;42.680;23.260;2023-04-01T08:55:04;93297.25;;;15.70;55.74
12785;BME280;6456;42.680;23.260;2023-04-01T08:57:45;93238.06;;;15.46;54.17
12785;BME280;6456;42.680;23.260;2023-04-01T09:00:26;93162.03;;;15.31;55.31
12785;BME280;6456;42.680;23.260;2023-04-01T09:03:33;93149.16;;;15.53;52.87
12785;BME280;6456;42.680;23.260;2023-04-01T09:06:24;93273.78;;;16.49;49.96
12785;BME280;6456;42.680;23.260;2023-04-01T09:09:20;93268.44;;;16.54;49.83
12785;BME280;6456;42.680;23.260;2023-04-01T09:12:02;93260.00;;;16.47;49.02
12785;BME280;6456;42.680;23.260;2023-04-01T09:20:46;93205.25;;;16.28;47.10
12785;BME280;6456;42.680;23.260;2023-04-01T09:23:33;93288.25;;;16.91;47.42
12785;BME280;6456;42.680;23.260;2023-04-01T09:26:14;93169.06;;;16.37;47.22
12785;BME280;6456;42.680;23.260;2023-04-01T09:28:50;93105.13;;;16.10;46.19
12785;BME280;6456;42.680;23.260;2023-04-01T09:31:45;93112.94;;;16.25;41.86
12785;BME280;6456;42.680;23.260;2023-04-01T09:34:43;93218.06;;;17.15;38.23
12785;BME280;6456;42.680;23.260;2023-04-01T09:37:31;93106.13;;;16.61;37.68
12785;BME280;6456;42.680;23.260;2023-04-01T09:40:21;93253.09;;;17.78;37.24
12785;BME280;6456;42.680;23.260;2023-04-01T09:43:01;93182.25;;;17.64;37.97
12785;BME280;6456;42.680;23.260;2023-04-01T09:45:41;93180.22;;;17.93;37.30
12785;BME280;6456;42.680;23.260;2023-04-01T09:48:21;93188.16;;;18.39;35.85
12785;BME280;6456;42.680;23.260;2023-04-01T09:51:00;93221.38;;;18.87;36.83
12785;BME280;6456;42.680;23.260;2023-04-01T09:53:52;93128.13;;;18.46;37.15
12785;BME280;6456;42.680;23.260;2023-04-01T09:56:46;93207.13;;;19.05;36.65
12785;BME280;6456;42.680;23.260;2023-04-01T10:05:32;93082.56;;;18.48;35.73
12785;BME280;6456;42.680;23.260;2023-04-01T10:11:50;93179.44;;;19.29;34.99
12785;BME280;6456;42.680;23.260;2023-04-01T10:14:44;93160.38;;;19.21;34.04
12785;BME280;6456;42.680;23.260;2023-04-01T10:17:41;93176.00;;;19.28;34.04
12785;BME280;6456;42.680;23.260;2023-04-01T10:20:30;93094.66;;;18.81;34.18
12785;BME280;6456;42.680;23.260;2023-04-01T10:23:27;93116.88;;;19.35;33.33
12785;BME280;6456;42.680;23.260;2023-04-01T10:26:35;93097.16;;;19.36;32.55
12785;BME280;6456;42.680;23.260;2023-04-01T10:29:37;93153.63;;;19.73;34.52
12785;BME280;6456;42.680;23.260;2023-04-01T10:39:03;93118.47;;;19.36;35.61
12785;BME280;6456;42.680;23.260;2023-04-01T10:45:19;93129.66;;;19.60;33.67
12785;BME280;6456;42.680;23.260;2023-04-01T10:48:21;93053.19;;;19.11;34.49
12785;BME280;6456;42.680;23.260;2023-04-01T10:51:07;93126.06;;;19.64;34.63
12785;BME280;6456;42.680;23.260;2023-04-01T10:53:50;93133.00;;;19.65;34.74
12785;BME280;6456;42.680;23.260;2023-04-01T10:56:45;93144.59;;;19.61;36.38
12785;BME280;6456;42.680;23.260;2023-04-01T10:59:36;93007.88;;;18.53;38.63
12785;BME280;6456;42.680;23.260;2023-04-01T11:06:04;93112.38;;;19.21;34.09
12785;BME280;6456;42.680;23.260;2023-04-01T11:09:09;93112.91;;;19.24;35.05
12785;BME280;6456;42.680;23.260;2023-04-01T11:12:07;93096.72;;;19.20;34.68
12785;BME280;6456;42.680;23.260;2023-04-01T11:15:10;93109.72;;;19.21;34.67
12785;BME280;6456;42.680;23.260;2023-04-01T11:18:07;93014.78;;;18.54;34.56
12785;BME280;6456;42.680;23.260;2023-04-01T11:24:01;93139.22;;;18.89;35.78
12785;BME280;6456;42.680;23.260;2023-04-01T11:26:42;93165.13;;;18.75;36.56
12785;BME280;6456;42.680;23.260;2023-04-01T11:29:39;93172.59;;;18.46;39.35
12785;BME280;6456;42.680;23.260;2023-04-01T11:32:20;93200.09;;;18.28;42.99
12785;BME280;6456;42.680;23.260;2023-04-01T11:35:22;93094.13;;;17.38;45.77
12785;BME280;6456;42.680;23.260;2023-04-01T11:38:01;93177.69;;;17.13;48.02
12785;BME280;6456;42.680;23.260;2023-04-01T11:40:39;93118.16;;;16.06;57.72
12785;BME280;6456;42.680;23.260;2023-04-01T11:43:18;93176.38;;;15.64;66.55
12785;BME280;6456;42.680;23.260;2023-04-01T11:45:51;93348.59;;;15.84;73.80
12785;BME280;6456;42.680;23.260;2023-04-01T11:48:38;93347.44;;;14.82;80.98
12785;BME280;6456;42.680;23.260;2023-04-01T11:51:41;93198.63;;;13.30;86.75
12785;BME280;6456;42.680;23.260;2023-04-01T11:54:26;93386.66;;;14.09;93.32
12785;BME280;6456;42.680;23.260;2023-04-01T11:57:09;93341.88;;;13.42;94.76
12785;BME280;6456;42.680;23.260;2023-04-01T11:59:57;93342.03;;;13.16;98.13
12785;BME280;6456;42.680;23.260;2023-04-01T12:02:37;93342.72;;;13.01;100.00
12785;BME280;6456;42.680;23.260;2023-04-01T12:05:36;93353.13;;;12.66;100.00
12785;BME280;6456;42.680;23.260;2023-04-01T12:08:21;93377.91;;;12.60;100.00
12785;BME280;6456;42.680;23.260;2023-04-01T12:10:58;93374.34;;;12.44;100.00
12785;BME280;6456;42.680;23.260;2023-04-01T12:13:39;93231.84;;;11.55;100.00
12785;BME280;6456;42.680;23.260;2023-04-01T12:16:30;93305.84;;;12.17;100.00
12785;BME280;6456;42.680;23.260;2023-04-01T12:19:23;93289.84;;;12.29;100.00
12785;BME280;6456;42.680;23.260;2023-04-01T12:22:07;93263.06;;;12.47;100.00
12785;BME280;6456;42.680;23.260;2023-04-01T12:24:45;93284.06;;;12.84;100.00
12785;BME280;6456;42.680;23.260;2023-04-01T12:27:34;93372.00;;;13.52;100.00
12785;BME280;6456;42.680;23.260;2023-04-01T12:30:30;93326.19;;;13.16;100.00
12785;BME280;6456;42.680;23.260;2023-04-01T12:33:10;93368.53;;;13.46;100.00
12785;BME280;6456;42.680;23.260;2023-04-01T12:35:52;93343.66;;;13.27;100.00
12785;BME280;6456;42.680;23.260;2023-04-01T12:38:31;93263.09;;;12.57;100.00
12785;BME280;6456;42.680;23.260;2023-04-01T12:41:14;93260.63;;;12.41;100.00
12785;BME280;6456;42.680;23.260;2023-04-01T12:44:12;93285.06;;;12.73;100.00
12785;BME280;6456;42.680;23.260;2023-04-01T12:47:05;93265.81;;;12.72;100.00
12785;BME280;6456;42.680;23.260;2023-04-01T12:52:58;93313.47;;;13.08;100.00
12785;BME280;6456;42.680;23.260;2023-04-01T12:55:38;93315.09;;;13.14;100.00
12785;BME280;6456;42.680;23.260;2023-04-01T13:01:49;93326.75;;;13.33;100.00
12785;BME280;6456;42.680;23.260;2023-04-01T13:04:39;93331.53;;;13.36;100.00
12785;BME280;6456;42.680;23.260;2023-04-01T13:07:43;93303.56;;;13.45;100.00
12785;BME280;6456;42.680;23.260;2023-04-01T13:10:38;93279.50;;;13.52;100.00
12785;BME280;6456;42.680;23.260;2023-04-01T13:13:36;93271.59;;;13.77;100.00
12785;BME280;6456;42.680;23.260;2023-04-01T13:16:10;93279.78;;;13.95;100.00
12785;BME280;6456;42.680;23.260;2023-04-01T13:18:48;93291.44;;;14.04;96.08
12785;BME280;6456;42.680;23.260;2023-04-01T13:21:23;93258.91;;;14.04;98.03
12785;BME280;6456;42.680;23.260;2023-04-01T13:24:00;93162.72;;;13.39;95.07
12785;BME280;6456;42.680;23.260;2023-04-01T13:26:34;93197.88;;;13.70;93.52
12785;BME280;6456;42.680;23.260;2023-04-01T13:29:11;93287.69;;;14.46;93.10
12785;BME280;6456;42.680;23.260;2023-04-01T13:31:55;93268.91;;;14.52;86.01
12785;BME280;6456;42.680;23.260;2023-04-01T13:34:39;93270.41;;;14.73;84.20
12785;BME280;6456;42.680;23.260;2023-04-01T13:37:22;93185.59;;;14.35;82.28
12785;BME280;6456;42.680;23.260;2023-04-01T13:40:05;93228.69;;;14.55;80.52
12785;BME280;6456;42.680;23.260;2023-04-01T13:42:47;93199.84;;;14.44;79.87
12785;BME280;6456;42.680;23.260;2023-04-01T13:45:20;93072.06;;;13.69;80.10
12785;BME280;6456;42.680;23.260;2023-04-01T13:48:02;93136.38;;;14.24;77.38
12785;BME280;6456;42.680;23.260;2023-04-01T13:50:39;93129.75;;;14.26;76.40
12785;BME280;6456;42.680;23.260;2023-04-01T13:56:33;93234.28;;;15.08;72.08
12785;BME280;6456;42.680;23.260;2023-04-01T13:59:40;93209.66;;;15.02;72.31
12785;BME280;6456;42.680;23.260;2023-04-01T14:02:34;93218.81;;;15.25;72.35
12785;BME280;6456;42.680;23.260;2023-04-01T14:05:34;93215.25;;;15.39;70.33
12785;BME280;6456;42.680;23.260;2023-04-01T14:08:14;93128.09;;;14.99;67.81
12785;BME280;6456;42.680;23.260;2023-04-01T14:10:50;93215.69;;;15.57;68.60
12785;BME280;6456;42.680;23.260;2023-04-01T14:13:34;93193.97;;;15.55;67.11
12785;BME280;6456;42.680;23.260;2023-04-01T14:16:14;93113.16;;;15.13;69.60
12785;BME280;6456;42.680;23.260;2023-04-01T14:18:53;93191.13;;;15.80;66.37
12785;BME280;6456;42.680;23.260;2023-04-01T14:21:37;93190.69;;;15.96;65.28
12785;BME280;6456;42.680;23.260;2023-04-01T14:24:52;93188.38;;;15.90;60.90
12785;BME280;6456;42.680;23.260;2023-04-01T14:27:47;93177.56;;;15.81;59.87
12785;BME280;6456;42.680;23.260;2023-04-01T14:33:43;93155.84;;;16.08;61.71
12785;BME280;6456;42.680;23.260;2023-04-01T14:36:32;93102.66;;;15.94;60.88
12785;BME280;6456;42.680;23.260;2023-04-01T14:39:18;93034.63;;;15.56;59.73
12785;BME280;6456;42.680;23.260;2023-04-01T14:41:59;93144.66;;;16.35;59.34
12785;BME280;6456;42.680;23.260;2023-04-01T14:44:50;93091.63;;;16.06;60.04